Pagrindinis puslapis
METAR-TAF:

METAR-TAF

Oro uostai :

Sarnia, Ontarijas, Kanada

platuma: 43-00N, ilguma: 082-19W, Aukštis: 181 m

Dabartinis oras

Ataskaita buvo paskelbta 51 minutes, ne 08:00 UTC
Vėjas 3 kt iš Rytų
Temperatūra 7°C
Drėgmė 81%
Slėgis 1022 hPa
Matomumas: 14.5 km
Išsisklaidę debesys ne aukštis 3600 ft

METAR: CYZR 180800Z AUTO 09003KT 9SM SCT036 07/04 A3017 RMK SLP220

Laikas: 04:51 (08:51 UTC)

Prognozė

Ataskaita buvo paskelbta 1 valandą ir 13 minutes, ne 07:38 UTC
Prognozė galioja nuo 18 metu 08 UTC su 18 metu 20 UTC
Vėjas 5 kt iš Rytų/Pietryčių
Matomumas: 10 km
Išsisklaidę debesys ne aukštis 4000 ft
Laikinai
nuo 18 metu 08 UTC su 18 metu 16 UTC
Su prošvaistėmis ne aukštis 4000 ft
Tapsmas
nuo 18 metu 08 UTC su 18 metu 10 UTC
Vėjas 10 kt iš Šiaurės/Šiaurės Rytų
Nuo 18 metu 1600 UTC
Vėjas 12 kt iš Šiaurės Rytų
Matomumas: 10 km
Mažai debesys ne aukštis 4000 ft

TAF: CYZR 180738Z 1808/1820 12005KT P6SM SCT040 TEMPO 1808/1816 BKN040 BECMG 1808/1810 02010KT FM181600 04012KT P6SM FEW040 RMK FCST BASED ON AUTO OBS. NXT FCST BY 181400Z

Orai ataskaitas ir orų prognozės (METAR, TAF).

turimą stotys yra geltonos ir raudonos taškus žemėlapyje.

Perkelti pele per norėdami pamatyti stoties vardą.

Tada spustelėkite, norėdami matyti oro stebėjimo ir prognozės.

Norėdami pakeisti žemėlapį: spustelėkite ant žalios mygtukų su juodo kryžiaus žemyn,; žalią mygtuką su brūkšneliu, jei norite nutolinti; arba žalių rodyklių gretimoms žemėlapius.


METAR-TAF: